Time;durP1;ratioP1;P1;durP2;ratioP2;P2;SDS_P1;SDS_P2;PMS_P1;PMS_P2;Temp;Humidity;BMP_temperature;BMP_pressure;BME280_temperature;BME280_humidity;BME280_pressure;Samples;Min_cycle;Max_cycle;Signal;HPM_P1;HPM_P2
2022/06/01 00:00:37;;;;;;;8.85;4.82;;;;;;;13.57;100.00;95148.44;5100380;28;21255;-66
2022/06/01 00:03:04;;;;;;;6.25;4.75;;;;;;;13.49;100.00;95154.09;5097616;28;20112;-66
2022/06/01 00:05:31;;;;;;;10.02;4.93;;;;;;;13.45;100.00;95153.00;5099994;28;20058;-66
2022/06/01 00:07:58;;;;;;;17.40;5.43;;;;;;;13.41;100.00;95144.03;5079230;28;20572;-65
2022/06/01 00:10:26;;;;;;;12.02;3.92;;;;;;;13.33;100.00;95136.59;5097930;28;20055;-65
2022/06/01 00:12:54;;;;;;;6.45;4.75;;;;;;;13.29;100.00;95130.22;5097927;28;20043;-65
2022/06/01 00:15:23;;;;;;;10.10;4.72;;;;;;;13.21;100.00;95134.03;5097446;28;20150;-65
2022/06/01 00:17:50;;;;;;;9.75;5.90;;;;;;;13.24;100.00;95138.00;5100129;27;20040;-65
2022/06/01 00:20:17;;;;;;;13.63;5.22;;;;;;;13.26;100.00;95130.72;5101931;27;20040;-65
2022/06/01 00:22:44;;;;;;;8.45;5.55;;;;;;;13.18;100.00;95114.41;5105222;27;20054;-65
2022/06/01 00:25:13;;;;;;;9.63;4.80;;;;;;;13.24;100.00;95127.56;5100499;27;20753;-65
2022/06/01 00:27:40;;;;;;;11.70;5.00;;;;;;;13.19;100.00;95131.66;5103193;27;20113;-65
2022/06/01 00:30:11;;;;;;;10.73;4.85;;;;;;;13.22;100.00;95124.34;5083321;27;20055;-65
2022/06/01 00:32:39;;;;;;;18.55;4.88;;;;;;;13.17;100.00;95128.50;5103020;27;20133;-66
2022/06/01 00:35:08;;;;;;;9.43;4.90;;;;;;;13.12;100.00;95119.78;5099975;27;20049;-65
2022/06/01 00:37:35;;;;;;;9.40;4.63;;;;;;;13.11;100.00;95128.69;5104139;27;20039;-65
2022/06/01 00:40:06;;;;;;;6.38;4.25;;;;;;;13.05;100.00;95129.63;5099773;27;20112;-66
2022/06/01 00:42:36;;;;;;;7.20;5.63;;;;;;;13.07;100.00;95123.13;5102958;27;20743;-66
2022/06/01 00:45:04;;;;;;;5.30;4.32;;;;;;;13.03;100.00;95122.00;5101280;27;20039;-65
2022/06/01 00:47:31;;;;;;;11.38;4.38;;;;;;;13.03;100.00;95116.78;5100709;27;20096;-65
2022/06/01 00:50:06;;;;;;;7.95;3.85;;;;;;;13.02;100.00;95117.81;5104142;27;20039;-65
2022/06/01 00:52:36;;;;;;;6.57;3.20;;;;;;;12.98;100.00;95109.66;5102945;27;20049;-65
2022/06/01 00:55:05;;;;;;;5.82;3.75;;;;;;;12.89;100.00;95111.09;5101606;27;20047;-65
2022/06/01 00:57:33;;;;;;;9.77;4.22;;;;;;;12.87;100.00;95107.91;5100580;27;20050;-65
2022/06/01 01:00:09;;;;;;;7.03;3.70;;;;;;;12.85;100.00;95103.94;5102458;27;20039;-65
2022/06/01 01:02:37;;;;;;;6.03;3.92;;;;;;;12.88;100.00;95103.50;5100250;27;20050;-65
2022/06/01 01:05:08;;;;;;;9.18;4.03;;;;;;;12.90;100.00;95106.66;5103929;27;20460;-66
2022/06/01 01:07:37;;;;;;;9.05;4.88;;;;;;;12.90;100.00;95106.66;5101017;27;20083;-65
2022/06/01 01:10:05;;;;;;;8.68;3.72;;;;;;;12.91;100.00;95108.22;5102387;27;20035;-66
2022/06/01 01:12:56;;;;;;;16.08;4.32;;;;;;;12.88;100.00;95106.09;5081280;28;20051;-65
2022/06/01 01:15:19;;;;;;;10.05;4.45;;;;;;;12.90;100.00;95117.09;5101208;27;20589;-65
2022/06/01 01:17:49;;;;;;;10.25;4.88;;;;;;;12.90;100.00;95112.66;5099815;27;20066;-65
2022/06/01 01:20:17;;;;;;;7.78;3.95;;;;;;;12.82;100.00;95100.78;5100595;27;20031;-65
2022/06/01 01:23:02;;;;;;;6.20;3.63;;;;;;;12.81;100.00;95114.88;5101071;27;20044;-66
2022/06/01 01:25:35;;;;;;;8.57;3.90;;;;;;;12.76;100.00;95114.78;5099891;27;20051;-65
2022/06/01 01:28:05;;;;;;;37.60;4.75;;;;;;;12.72;100.00;95116.31;5100602;27;20603;-66
2022/06/01 01:30:38;;;;;;;6.75;4.20;;;;;;;12.67;100.00;95103.16;5101391;27;20092;-65
2022/06/01 01:33:16;;;;;;;5.93;4.00;;;;;;;12.59;100.00;95100.94;5098952;27;20082;-66
2022/06/01 01:35:53;;;;;;;13.40;4.60;;;;;;;12.53;100.00;95091.41;5102755;27;20158;-66
2022/06/01 01:38:54;;;;;;;5.05;4.43;;;;;;;12.42;100.00;95078.22;5098607;27;20043;-66
2022/06/01 01:41:31;;;;;;;12.30;4.00;;;;;;;12.41;100.00;95087.06;5079189;27;20047;-66
2022/06/01 01:44:11;;;;;;;8.60;5.00;;;;;;;12.32;100.00;95075.41;5079569;28;20574;-66
2022/06/01 01:46:42;;;;;;;9.73;4.75;;;;;;;12.40;100.00;95088.06;5099665;27;20098;-66
2022/06/01 01:49:09;;;;;;;14.18;4.32;;;;;;;12.20;100.00;95054.56;5098961;27;20074;-66
2022/06/01 01:51:37;;;;;;;7.03;4.53;;;;;;;12.29;100.00;95073.28;5096603;27;20100;-66
2022/06/01 01:54:31;;;;;;;9.52;4.85;;;;;;;12.28;100.00;95079.53;5100238;27;20035;-66
2022/06/01 01:57:35;;;;;;;9.15;4.88;;;;;;;12.32;100.00;95085.88;5071066;27;20125;-66
2022/06/01 02:00:14;;;;;;;5.97;4.40;;;;;;;12.23;100.00;95076.84;5080581;28;20047;-66
2022/06/01 02:02:47;;;;;;;7.20;4.32;;;;;;;12.28;100.00;95089.16;5102384;27;20050;-66
2022/06/01 02:08:20;;;;;;;9.43;4.72;;;;;;;12.23;100.00;95084.66;5100334;27;20257;-66
2022/06/01 02:13:33;;;;;;;7.63;4.57;;;;;;;12.20;100.00;95085.13;5100946;27;20042;-66
2022/06/01 02:16:01;;;;;;;7.18;5.10;;;;;;;12.18;100.00;95079.34;5099630;27;20044;-66
2022/06/01 02:18:42;;;;;;;9.52;4.82;;;;;;;12.12;100.00;95080.28;5097827;27;20567;-65
2022/06/01 02:21:14;;;;;;;7.88;4.68;;;;;;;12.13;100.00;95082.66;5102285;27;20054;-67
2022/06/01 02:23:41;;;;;;;11.93;4.53;;;;;;;12.15;100.00;95079.81;5103708;27;20070;-66
2022/06/01 02:26:09;;;;;;;14.98;4.80;;;;;;;12.09;100.00;95086.75;5102653;27;20055;-66
2022/06/01 02:28:40;;;;;;;6.80;4.55;;;;;;;12.03;100.00;95083.28;5102151;27;20040;-66
2022/06/01 02:31:08;;;;;;;12.00;4.93;;;;;;;12.00;100.00;95083.72;5103401;28;20054;-66
2022/06/01 02:33:37;;;;;;;10.52;4.95;;;;;;;12.01;100.00;95089.72;5107712;27;20047;-66
2022/06/01 02:36:06;;;;;;;14.15;5.35;;;;;;;11.98;100.00;95085.78;5100198;28;20047;-66
2022/06/01 02:38:47;;;;;;;14.93;5.95;;;;;;;11.95;100.00;95086.25;5100003;27;20039;-66
2022/06/01 02:44:00;;;;;;;7.75;5.20;;;;;;;11.85;100.00;95080.81;5096493;27;20517;-66
2022/06/01 02:46:26;;;;;;;10.70;4.32;;;;;;;11.92;100.00;95091.94;5104332;27;20043;-66
2022/06/01 02:48:55;;;;;;;13.07;5.05;;;;;;;11.97;100.00;95088.63;5096488;27;20055;-66
2022/06/01 02:51:24;;;;;;;17.55;5.50;;;;;;;11.90;100.00;95088.75;5097396;27;20749;-66
2022/06/01 02:53:50;;;;;;;10.25;5.05;;;;;;;11.88;100.00;95087.38;5096901;27;20035;-67
2022/06/01 02:56:17;;;;;;;10.50;4.63;;;;;;;11.84;100.00;95089.66;5099941;27;20066;-66
2022/06/01 02:58:44;;;;;;;8.10;3.97;;;;;;;11.86;100.00;95087.59;5096710;27;20570;-66
2022/06/01 03:01:11;;;;;;;16.05;5.35;;;;;;;11.90;100.00;95087.94;5101933;27;20035;-66
2022/06/01 03:03:39;;;;;;;15.35;5.47;;;;;;;11.88;100.00;95096.00;5096456;27;20087;-66
2022/06/01 03:06:06;;;;;;;8.70;5.15;;;;;;;11.87;100.00;95089.22;5100418;27;20036;-66
2022/06/01 03:08:34;;;;;;;8.27;5.22;;;;;;;11.85;100.00;95086.03;5098974;28;20853;-66
2022/06/01 03:11:01;;;;;;;10.82;5.57;;;;;;;12.00;100.00;95099.38;5101603;27;20172;-66
2022/06/01 03:13:27;;;;;;;10.55;4.85;;;;;;;12.05;100.00;95102.09;5097985;27;20055;-66
2022/06/01 03:15:54;;;;;;;10.43;6.90;;;;;;;12.12;100.00;95106.38;5095806;27;20075;-66
2022/06/01 03:18:21;;;;;;;15.02;5.10;;;;;;;12.20;100.00;95106.00;5102542;27;20042;-66
2022/06/01 03:20:48;;;;;;;10.68;4.70;;;;;;;12.26;100.00;95107.69;5098128;27;20050;-66
2022/06/01 03:23:16;;;;;;;13.52;4.72;;;;;;;12.34;100.00;95109.94;5080874;28;20054;-67
2022/06/01 03:25:42;;;;;;;11.15;6.00;;;;;;;12.42;100.00;95106.94;5098382;27;20040;-66
2022/06/01 03:28:09;;;;;;;9.98;5.20;;;;;;;12.48;100.00;95114.84;5100377;27;20044;-66
2022/06/01 03:30:36;;;;;;;13.18;5.25;;;;;;;12.55;100.00;95116.31;5098178;27;20043;-66
2022/06/01 03:33:03;;;;;;;9.75;5.43;;;;;;;12.59;100.00;95120.00;5099693;27;20043;-66
2022/06/01 03:35:32;;;;;;;14.55;4.78;;;;;;;12.66;100.00;95124.28;5098202;28;20040;-66
2022/06/01 03:37:59;;;;;;;9.70;5.72;;;;;;;12.66;100.00;95129.50;5092217;28;20077;-66
2022/06/01 03:40:29;;;;;;;10.77;5.65;;;;;;;12.72;100.00;95126.75;5094100;27;20051;-65
2022/06/01 03:42:56;;;;;;;9.40;5.10;;;;;;;12.76;100.00;95127.84;5097824;28;20097;-65
2022/06/01 03:48:10;;;;;;;12.98;4.72;;;;;;;12.77;100.00;95121.63;5095839;28;20097;-66
2022/06/01 03:50:37;;;;;;;10.90;4.47;;;;;;;12.95;100.00;95130.25;5097848;28;20762;-66
2022/06/01 03:53:05;;;;;;;7.65;4.95;;;;;;;13.04;100.00;95136.69;5093491;28;20475;-66
2022/06/01 03:55:32;;;;;;;15.45;4.10;;;;;;;13.12;100.00;95141.50;5098585;28;20108;-66
2022/06/01 03:57:59;;;;;;;6.00;3.97;;;;;;;13.28;100.00;95139.09;5095164;28;20036;-66
2022/06/01 04:00:27;;;;;;;8.63;4.15;;;;;;;13.37;100.00;95132.47;5099322;28;20061;-66
2022/06/01 04:02:54;;;;;;;7.07;4.80;;;;;;;13.50;100.00;95126.88;5097898;28;20039;-66
2022/06/01 04:05:22;;;;;;;9.88;5.25;;;;;;;13.53;100.00;95131.63;5099584;28;20040;-65
2022/06/01 04:07:50;;;;;;;5.47;4.22;;;;;;;13.65;100.00;95123.69;5097388;28;20068;-66
2022/06/01 04:10:17;;;;;;;9.98;4.78;;;;;;;13.72;100.00;95123.50;5099716;28;20051;-66
2022/06/01 04:12:44;;;;;;;9.27;5.15;;;;;;;13.69;100.00;95130.00;5077696;28;20059;-66
2022/06/01 04:15:11;;;;;;;10.90;5.25;;;;;;;13.76;100.00;95135.06;5096116;28;20185;-67
2022/06/01 04:17:38;;;;;;;17.40;5.75;;;;;;;13.70;100.00;95136.03;5097956;28;20048;-65
2022/06/01 04:20:07;;;;;;;19.67;5.70;;;;;;;13.73;100.00;95135.56;5099383;28;20064;-66
2022/06/01 04:22:35;;;;;;;14.02;5.28;;;;;;;13.75;100.00;95138.72;5096420;28;20048;-66
2022/06/01 04:25:02;;;;;;;17.77;5.50;;;;;;;13.74;100.00;95137.16;5096482;28;20555;-66
2022/06/01 04:27:29;;;;;;;10.27;5.00;;;;;;;13.82;100.00;95135.94;5098592;28;20060;-66
2022/06/01 04:29:55;;;;;;;9.20;5.85;;;;;;;13.78;100.00;95138.25;5095274;28;20043;-66
2022/06/01 04:32:28;;;;;;;7.90;5.85;;;;;;;13.76;100.00;95129.84;5096362;28;20040;-66
2022/06/01 04:34:55;;;;;;;11.63;6.45;;;;;;;13.86;100.00;95134.41;5093232;28;20039;-66
2022/06/01 04:37:22;;;;;;;9.43;6.07;;;;;;;13.87;100.00;95136.00;5098021;28;20715;-66
2022/06/01 04:39:49;;;;;;;7.95;5.53;;;;;;;13.95;100.00;95138.97;5096612;28;20094;-66
2022/06/01 04:42:16;;;;;;;9.55;5.15;;;;;;;14.04;100.00;95143.78;5093261;28;20048;-67
2022/06/01 04:44:43;;;;;;;11.20;5.60;;;;;;;14.11;100.00;95145.16;5095811;28;20063;-66
2022/06/01 04:47:10;;;;;;;18.02;5.75;;;;;;;14.15;100.00;95142.84;5101002;28;20128;-66
2022/06/01 04:49:37;;;;;;;9.00;6.07;;;;;;;14.17;100.00;95139.97;5094804;28;20044;-66
2022/06/01 04:52:04;;;;;;;13.13;5.45;;;;;;;14.23;100.00;95133.78;5092284;28;20065;-66
2022/06/01 04:54:32;;;;;;;8.32;5.75;;;;;;;14.36;100.00;95132.59;5097866;28;20062;-66
2022/06/01 04:56:58;;;;;;;12.88;6.13;;;;;;;14.51;100.00;95130.91;5097907;28;20035;-67
2022/06/01 04:59:25;;;;;;;12.48;5.47;;;;;;;14.69;100.00;95132.44;5100002;28;20116;-67
2022/06/01 05:01:52;;;;;;;15.30;5.80;;;;;;;14.84;100.00;95141.47;5098763;28;20055;-67
2022/06/01 05:04:19;;;;;;;12.02;6.53;;;;;;;15.01;100.00;95144.72;5106430;27;20035;-67
2022/06/01 05:06:46;;;;;;;15.43;6.80;;;;;;;15.08;100.00;95155.00;5085466;27;20058;-67
2022/06/01 05:09:13;;;;;;;13.35;8.43;;;;;;;15.21;100.00;95145.94;5111048;27;20042;-67
2022/06/01 05:11:40;;;;;;;16.73;8.82;;;;;;;15.32;100.00;95150.19;5104179;27;20059;-68
2022/06/01 05:14:06;;;;;;;15.52;8.98;;;;;;;15.38;100.00;95138.69;5108179;27;20035;-67
2022/06/01 05:16:33;;;;;;;20.02;9.18;;;;;;;15.61;100.00;95150.66;5102594;27;20047;-67
2022/06/01 05:19:00;;;;;;;19.25;7.57;;;;;;;15.84;100.00;95143.41;5101521;27;20050;-68
2022/06/01 05:21:27;;;;;;;17.00;8.52;;;;;;;15.82;100.00;95153.41;5102896;27;20047;-67
2022/06/01 05:23:54;;;;;;;17.83;8.88;;;;;;;15.97;100.00;95165.81;5101350;27;21582;-66
2022/06/01 05:26:21;;;;;;;14.38;8.48;;;;;;;15.95;100.00;95162.66;5103595;27;20411;-67
2022/06/01 05:28:48;;;;;;;14.00;8.43;;;;;;;15.92;100.00;95157.91;5101061;27;20035;-67
2022/06/01 05:31:15;;;;;;;14.82;8.50;;;;;;;15.98;100.00;95172.66;5102339;27;20048;-68
2022/06/01 05:33:43;;;;;;;16.13;8.55;;;;;;;15.91;100.00;95156.34;5100923;27;20120;-68
2022/06/01 05:36:12;;;;;;;18.60;8.55;;;;;;;16.07;100.00;95179.00;5100929;27;20048;-67
2022/06/01 05:38:39;;;;;;;15.00;9.15;;;;;;;16.08;100.00;95167.44;5100851;27;20511;-66
2022/06/01 05:41:07;;;;;;;16.55;9.85;;;;;;;16.19;100.00;95174.31;5105149;27;20047;-67
2022/06/01 05:43:35;;;;;;;14.32;9.52;;;;;;;16.24;100.00;95176.97;5101578;27;20051;-67
2022/06/01 05:46:03;;;;;;;16.60;10.45;;;;;;;16.23;100.00;95175.38;5100573;27;20040;-67
2022/06/01 05:48:30;;;;;;;17.90;9.50;;;;;;;16.15;100.00;95168.00;5101070;27;20031;-66
2022/06/01 05:50:58;;;;;;;18.33;9.43;;;;;;;16.25;100.00;95168.00;5100483;27;20043;-67
2022/06/01 05:53:25;;;;;;;16.10;9.65;;;;;;;16.27;100.00;95165.13;5099755;28;20061;-67
2022/06/01 05:55:52;;;;;;;23.63;10.82;;;;;;;16.32;100.00;95159.13;5100627;27;20066;-67
2022/06/01 05:58:22;;;;;;;16.42;10.38;;;;;;;16.56;100.00;95154.94;5101523;27;20470;-67
2022/06/01 06:00:51;;;;;;;17.35;10.27;;;;;;;16.76;100.00;95151.59;5098941;28;20047;-68
2022/06/01 06:03:23;;;;;;;16.38;9.40;;;;;;;16.90;100.00;95157.13;5102330;27;20410;-67
2022/06/01 06:06:13;;;;;;;16.58;8.98;;;;;;;16.93;100.00;95156.59;5097799;27;20548;-66
2022/06/01 06:08:44;;;;;;;20.48;11.50;;;;;;;17.11;100.00;95157.16;5100130;27;20046;-66
2022/06/01 06:11:20;;;;;;;16.50;9.65;;;;;;;17.27;100.00;95155.28;5099096;27;20664;-65
2022/06/01 06:13:47;;;;;;;15.25;10.05;;;;;;;17.46;100.00;95152.88;5083023;27;20084;-66
2022/06/01 06:16:16;;;;;;;17.02;9.60;;;;;;;17.50;100.00;95159.19;5098668;27;20046;-66
2022/06/01 06:18:43;;;;;;;16.10;9.38;;;;;;;17.50;100.00;95164.47;5101336;28;20035;-65
2022/06/01 06:21:10;;;;;;;14.38;9.90;;;;;;;17.72;100.00;95166.81;5079482;27;20036;-66
2022/06/01 06:23:37;;;;;;;14.88;9.13;;;;;;;17.76;100.00;95165.97;5099905;27;20101;-66
2022/06/01 06:26:05;;;;;;;14.13;9.38;;;;;;;17.81;100.00;95169.66;5098710;27;20050;-66
2022/06/01 06:28:32;;;;;;;17.92;10.30;;;;;;;17.76;100.00;95167.84;5099830;27;20120;-66
2022/06/01 06:30:59;;;;;;;19.73;9.32;;;;;;;17.74;100.00;95157.56;5097495;27;20043;-66
2022/06/01 06:33:26;;;;;;;12.68;9.13;;;;;;;17.96;100.00;95145.94;5096214;28;20867;-66
2022/06/01 06:36:04;;;;;;;22.10;9.82;;;;;;;18.20;100.00;95150.56;5096757;27;20563;-66
2022/06/01 06:38:34;;;;;;;15.20;8.75;;;;;;;18.22;100.00;95144.00;5095660;27;20051;-66
2022/06/01 06:41:01;;;;;;;14.07;10.00;;;;;;;18.57;100.00;95144.06;5098004;27;20047;-67
2022/06/01 06:43:29;;;;;;;13.98;9.50;;;;;;;18.72;100.00;95146.59;5096426;27;20051;-66
2022/06/01 06:46:08;;;;;;;15.30;8.35;;;;;;;18.76;100.00;95139.69;5099679;27;20579;-66
2022/06/01 06:48:35;;;;;;;16.20;9.05;;;;;;;18.78;100.00;95150.78;5077858;28;20036;-66
2022/06/01 06:51:03;;;;;;;14.23;8.95;;;;;;;18.72;100.00;95151.88;5100905;28;20039;-66
2022/06/01 06:53:30;;;;;;;16.92;8.90;;;;;;;18.84;100.00;95144.44;5094245;27;20743;-66
2022/06/01 06:55:57;;;;;;;14.75;8.75;;;;;;;18.93;100.00;95151.78;5103852;27;20048;-67
2022/06/01 06:58:25;;;;;;;14.10;9.50;;;;;;;18.98;100.00;95143.78;5096346;27;20040;-67
2022/06/01 07:00:52;;;;;;;13.73;9.40;;;;;;;19.13;100.00;95151.59;5079772;27;20044;-67
2022/06/01 07:03:19;;;;;;;14.40;9.27;;;;;;;19.17;100.00;95147.34;5098016;27;20043;-67
2022/06/01 07:08:32;;;;;;;14.10;8.90;;;;;;;19.19;100.00;95144.41;5098917;27;20051;-67
2022/06/01 07:10:59;;;;;;;17.25;11.23;;;;;;;19.23;100.00;95135.69;5099732;27;20052;-67
2022/06/01 07:13:27;;;;;;;14.77;8.57;;;;;;;19.37;100.00;95135.00;5102522;27;20542;-67
2022/06/01 07:16:07;;;;;;;16.00;8.73;;;;;;;19.39;100.00;95140.81;5097398;28;20042;-67
2022/06/01 07:18:38;;;;;;;13.15;8.05;;;;;;;19.49;99.34;95143.34;5095501;27;20043;-67
2022/06/01 07:21:06;;;;;;;14.00;8.02;;;;;;;19.77;100.00;95140.97;5105499;27;20051;-66
2022/06/01 07:23:35;;;;;;;15.38;8.18;;;;;;;19.88;100.00;95134.53;5095719;27;20058;-65
2022/06/01 07:26:02;;;;;;;15.40;8.18;;;;;;;20.02;99.58;95146.00;5093424;28;20035;-66
2022/06/01 07:28:29;;;;;;;16.75;7.75;;;;;;;20.08;97.16;95151.19;5098397;28;20050;-66
2022/06/01 07:30:59;;;;;;;11.73;7.85;;;;;;;20.23;95.52;95145.72;5101575;27;20070;-66
2022/06/01 07:33:28;;;;;;;9.20;7.10;;;;;;;20.39;95.41;95144.47;5096807;28;20040;-67
2022/06/01 07:35:56;;;;;;;14.02;7.18;;;;;;;20.46;92.78;95138.03;5093927;27;20130;-67
2022/06/01 07:44:05;;;;;;;13.00;6.95;;;;;;;21.01;92.46;95140.94;5100708;28;20047;-67
2022/06/01 07:46:34;;;;;;;12.52;7.65;;;;;;;21.01;92.92;95143.59;5095777;28;20059;-67
2022/06/01 07:49:01;;;;;;;12.35;7.50;;;;;;;21.35;95.26;95137.22;5098854;27;20099;-65
2022/06/01 07:51:48;;;;;;;7.55;5.07;;;;;;;21.57;87.48;95145.34;5092609;27;20508;-67
2022/06/01 07:54:15;;;;;;;12.18;5.45;;;;;;;21.65;85.63;95135.13;5077741;28;20040;-67
2022/06/01 07:56:42;;;;;;;10.57;5.32;;;;;;;21.52;83.36;95137.47;5099119;28;20336;-67
2022/06/01 07:59:10;;;;;;;8.35;5.32;;;;;;;21.62;83.36;95146.31;5076743;28;20776;-67
2022/06/01 08:01:37;;;;;;;8.02;5.65;;;;;;;21.72;84.08;95135.53;5098710;28;20052;-67
2022/06/01 08:04:07;;;;;;;9.18;5.38;;;;;;;21.89;86.52;95146.31;5096509;28;20518;-67
2022/06/01 08:18:44;;;;;;;9.60;4.53;;;;;;;22.30;77.65;95129.63;5110387;27;20606;-69
2022/06/01 08:21:11;;;;;;;7.25;4.55;;;;;;;22.39;78.13;95124.41;5112389;27;20035;-68
2022/06/01 08:23:38;;;;;;;12.75;4.00;;;;;;;22.54;76.19;95128.56;5118363;27;20055;-67
2022/06/01 08:26:05;;;;;;;6.80;3.95;;;;;;;22.73;76.49;95135.63;5117882;27;20047;-67
2022/06/01 08:28:33;;;;;;;11.07;4.97;;;;;;;22.96;76.89;95123.91;5114980;27;20047;-67
2022/06/01 08:31:00;;;;;;;5.32;4.05;;;;;;;23.17;74.97;95126.09;5116613;27;20051;-68
2022/06/01 08:33:27;;;;;;;9.13;3.65;;;;;;;23.34;74.27;95128.88;5116855;27;20775;-67
2022/06/01 08:36:00;;;;;;;7.65;3.72;;;;;;;23.54;72.13;95122.25;5112954;27;20043;-68
2022/06/01 08:38:27;;;;;;;10.60;4.38;;;;;;;23.71;72.00;95134.81;5114931;27;20071;-68
2022/06/01 08:40:59;;;;;;;12.95;4.22;;;;;;;23.55;69.52;95128.31;5095805;27;20047;-68
2022/06/01 08:43:30;;;;;;;8.52;4.15;;;;;;;23.78;68.16;95135.16;5120805;27;20043;-68
2022/06/01 08:46:00;;;;;;;5.25;3.45;;;;;;;24.03;70.02;95125.72;5111885;27;20047;-69
2022/06/01 08:48:35;;;;;;;6.20;3.80;;;;;;;24.11;71.21;95129.50;5090276;27;20650;-69
2022/06/01 08:51:03;;;;;;;8.55;4.38;;;;;;;23.87;69.73;95129.91;5114129;27;20126;-68
2022/06/01 08:53:30;;;;;;;5.50;3.92;;;;;;;24.07;69.74;95128.53;5112895;27;20051;-69
2022/06/01 08:56:04;;;;;;;8.25;3.80;;;;;;;24.06;69.82;95132.31;5113361;27;20048;-68
2022/06/01 08:58:36;;;;;;;6.35;3.30;;;;;;;24.36;66.58;95135.16;5126701;27;20070;-68
2022/06/01 09:01:29;;;;;;;10.60;4.28;;;;;;;24.49;65.76;95134.28;5117756;27;20044;-68
2022/06/01 09:04:29;;;;;;;7.00;3.70;;;;;;;24.44;66.84;95131.75;5111543;27;20786;-69
2022/06/01 09:07:21;;;;;;;5.85;3.50;;;;;;;24.81;68.08;95129.59;5117158;27;20043;-68
2022/06/01 09:10:06;;;;;;;5.63;4.35;;;;;;;24.81;68.14;95129.59;5093507;27;20031;-68
2022/06/01 09:12:34;;;;;;;4.68;3.47;;;;;;;24.80;66.51;95128.81;5111004;27;20575;-68
2022/06/01 09:15:12;;;;;;;6.57;4.32;;;;;;;25.00;64.52;95132.72;5093118;27;20055;-68
2022/06/01 09:17:43;;;;;;;10.73;4.20;;;;;;;24.99;64.77;95128.50;5097843;27;20047;-68
2022/06/01 09:23:04;;;;;;;6.47;4.22;;;;;;;25.90;64.21;95120.41;5115780;27;20044;-68
2022/06/01 09:25:35;;;;;;;6.07;3.70;;;;;;;26.03;64.41;95118.63;5093849;27;20063;-68
2022/06/01 09:28:21;;;;;;;9.52;4.47;;;;;;;26.21;65.27;95126.56;5112733;27;20062;-68
2022/06/01 09:30:54;;;;;;;5.47;3.92;;;;;;;26.23;63.92;95122.44;5096767;27;20608;-68
2022/06/01 09:33:28;;;;;;;7.13;3.65;;;;;;;25.86;63.30;95124.06;5101297;28;20067;-68
2022/06/01 09:36:07;;;;;;;5.38;4.05;;;;;;;26.40;61.65;95126.91;5098545;27;20138;-68
2022/06/01 09:38:49;;;;;;;6.00;3.55;;;;;;;26.44;58.20;95125.16;5099403;27;20125;-69
2022/06/01 09:41:19;;;;;;;10.85;3.65;;;;;;;26.58;55.71;95121.41;5096394;27;20050;-69
2022/06/01 09:43:54;;;;;;;6.18;3.50;;;;;;;26.91;55.34;95118.06;5101146;27;20047;-69
2022/06/01 09:46:35;;;;;;;5.90;3.17;;;;;;;26.94;54.15;95122.72;5098778;27;20048;-68
2022/06/01 09:49:04;;;;;;;7.03;2.80;;;;;;;27.25;53.96;95123.06;5101580;27;20067;-68
2022/06/01 09:51:34;;;;;;;4.75;2.63;;;;;;;27.44;53.19;95103.06;5097432;27;20086;-69
2022/06/01 09:54:10;;;;;;;6.15;3.08;;;;;;;28.03;50.57;95118.75;5100329;27;20040;-69
2022/06/01 09:56:44;;;;;;;10.20;3.40;;;;;;;28.48;48.19;95116.25;5096115;27;20717;-68
2022/06/01 10:08:20;;;;;;;5.45;2.65;;;;;;;28.67;44.41;95113.75;5097387;27;20027;-68
2022/06/01 10:11:27;;;;;;;4.68;2.55;;;;;;;29.03;42.51;95109.38;5100994;27;20235;-68
2022/06/01 10:14:11;;;;;;;5.88;2.78;;;;;;;29.19;44.39;95108.66;5098403;27;21472;-69
2022/06/01 10:16:58;;;;;;;5.40;2.35;;;;;;;29.34;42.79;95107.91;5097710;27;20063;-71
2022/06/01 10:19:31;;;;;;;3.97;1.85;;;;;;;29.36;40.56;95105.66;5058543;27;20051;-68
2022/06/01 10:22:18;;;;;;;6.57;3.00;;;;;;;28.96;42.67;95103.84;5102585;27;20052;-69
2022/06/01 10:25:02;;;;;;;3.13;2.45;;;;;;;29.20;41.13;95096.81;5084426;28;20035;-70
2022/06/01 10:27:57;;;;;;;4.45;1.98;;;;;;;29.71;41.51;95104.97;5083515;28;20046;-68
2022/06/01 10:30:28;;;;;;;8.13;2.08;;;;;;;30.00;37.77;95097.63;5102525;27;20040;-68
2022/06/01 10:33:09;;;;;;;7.07;2.10;;;;;;;30.46;37.04;95105.94;5097849;27;20535;-69
2022/06/01 10:35:44;;;;;;;9.40;2.17;;;;;;;30.20;37.09;95099.25;5100258;27;20573;-67
2022/06/01 10:38:15;;;;;;;6.18;2.50;;;;;;;30.01;37.87;95096.50;5101172;27;20035;-68
2022/06/01 10:40:49;;;;;;;3.35;1.90;;;;;;;30.31;38.12;95099.47;5096578;27;20593;-68
2022/06/01 10:43:39;;;;;;;4.13;2.00;;;;;;;30.81;36.17;95102.41;5099379;27;20082;-69
2022/06/01 10:46:24;;;;;;;7.63;2.03;;;;;;;31.30;35.47;95096.47;5092825;27;20040;-69
2022/06/01 10:49:27;;;;;;;3.53;2.05;;;;;;;31.38;34.20;95094.66;5091964;27;20040;-69
2022/06/01 10:52:13;;;;;;;2.37;2.13;;;;;;;30.97;34.09;95097.78;5096029;27;20449;-69
2022/06/01 10:55:05;;;;;;;2.75;2.15;;;;;;;31.06;33.85;95106.41;5093586;27;20468;-68
2022/06/01 10:57:36;;;;;;;4.72;2.10;;;;;;;30.99;34.42;95092.84;5078234;28;20043;-69
2022/06/01 11:00:09;;;;;;;3.65;2.13;;;;;;;31.69;36.70;95080.19;5092611;27;20987;-70
2022/06/01 11:02:54;;;;;;;6.82;1.88;;;;;;;32.22;31.73;95086.78;5100453;27;20043;-69
2022/06/01 11:05:40;;;;;;;4.30;1.85;;;;;;;32.50;33.64;95087.16;5076224;28;20187;-69
2022/06/01 11:08:38;;;;;;;4.38;2.00;;;;;;;32.50;30.54;95087.16;5096010;27;20092;-68
2022/06/01 11:11:08;;;;;;;8.15;2.30;;;;;;;32.72;32.35;95087.47;5091510;27;20040;-69
2022/06/01 11:13:57;;;;;;;4.10;1.90;;;;;;;33.30;30.19;95089.63;5097007;27;20047;-69
2022/06/01 11:16:57;;;;;;;4.78;1.65;;;;;;;32.92;29.33;95091.53;5096878;27;20059;-69
2022/06/01 11:19:49;;;;;;;4.07;1.77;;;;;;;32.20;31.55;95079.84;5099437;27;20797;-69
2022/06/01 11:22:40;;;;;;;5.72;1.88;;;;;;;32.22;31.54;95078.72;5096373;27;20040;-69
2022/06/01 11:25:19;;;;;;;5.28;2.35;;;;;;;33.04;30.59;95081.63;5098690;27;20028;-69
2022/06/01 11:28:13;;;;;;;4.97;1.88;;;;;;;33.42;30.51;95079.69;5096006;27;20039;-69
2022/06/01 11:30:59;;;;;;;4.47;1.52;;;;;;;33.89;28.59;95086.31;5100103;27;20058;-70
2022/06/01 11:33:49;;;;;;;3.20;2.38;;;;;;;34.07;29.83;95081.78;5094924;27;20039;-70
2022/06/01 11:36:35;;;;;;;3.05;1.77;;;;;;;33.94;27.85;95077.06;5099159;27;20046;-70
2022/06/01 11:39:41;;;;;;;5.65;2.25;;;;;;;33.62;28.85;95067.56;5096408;27;20039;-67
2022/06/01 11:42:26;;;;;;;2.22;1.35;;;;;;;33.67;29.22;95064.53;5080496;28;20048;-68
2022/06/01 11:45:02;;;;;;;5.60;1.75;;;;;;;34.35;27.35;95069.59;5097618;27;20784;-69
2022/06/01 11:47:51;;;;;;;5.75;1.65;;;;;;;34.85;29.69;95075.25;5097394;27;21527;-69
2022/06/01 11:50:33;;;;;;;4.85;2.67;;;;;;;35.32;26.02;95064.53;5094856;28;20196;-69
2022/06/01 11:53:07;;;;;;;4.85;2.63;;;;;;;35.44;26.37;95060.69;5097209;27;20051;-69
2022/06/01 11:55:34;;;;;;;2.72;1.38;;;;;;;35.98;25.73;95061.47;5096393;27;20252;-69
2022/06/01 11:58:05;;;;;;;1.85;1.30;;;;;;;36.48;26.06;95059.81;5097322;27;20035;-69
2022/06/01 12:00:52;;;;;;;4.35;2.30;;;;;;;36.83;26.44;95058.91;5094798;28;20048;-69
2022/06/01 12:03:24;;;;;;;5.97;1.77;;;;;;;37.04;25.07;95058.03;5098545;27;21620;-68
2022/06/01 12:06:15;;;;;;;3.42;1.63;;;;;;;37.49;24.79;95060.84;5094572;28;20842;-69
2022/06/01 12:08:48;;;;;;;3.63;1.50;;;;;;;37.71;24.77;95060.69;5094677;28;21069;-69
2022/06/01 12:11:41;;;;;;;3.95;1.92;;;;;;;38.17;23.23;95058.72;5095253;28;20059;-68
2022/06/01 12:14:52;;;;;;;2.78;1.55;;;;;;;37.78;23.53;95038.09;5096852;28;20061;-68
2022/06/01 12:17:18;;;;;;;5.38;1.85;;;;;;;37.93;22.18;95044.19;5090955;28;20104;-68
2022/06/01 12:19:50;;;;;;;4.50;1.27;;;;;;;36.57;21.93;95046.59;5094313;28;20031;-68
2022/06/01 12:28:54;;;;;;;2.67;1.55;;;;;;;36.18;24.47;95042.81;5095912;28;20105;-68
2022/06/01 12:31:26;;;;;;;5.13;1.75;;;;;;;35.88;23.76;95040.56;5092801;28;20048;-68
2022/06/01 12:34:03;;;;;;;2.90;1.70;;;;;;;35.72;24.66;95032.06;5096471;28;20055;-68
2022/06/01 12:36:36;;;;;;;8.32;1.67;;;;;;;36.29;24.10;95039.34;5094574;28;20059;-68
2022/06/01 12:39:11;;;;;;;3.67;1.52;;;;;;;36.50;23.49;95041.97;5096256;28;20113;-68